createdAt,value
2022-11-04T00:00:44.881Z,97775.44
2022-11-04T00:03:14.093Z,97766.56
2022-11-04T00:05:42.805Z,97766.00
2022-11-04T00:08:24.893Z,97766.28
2022-11-04T00:11:13.466Z,97767.88
2022-11-04T00:13:42.348Z,97773.50
2022-11-04T00:16:28.122Z,97771.31
2022-11-04T00:18:57.057Z,97761.38
2022-11-04T00:21:57.621Z,97759.78
2022-11-04T00:24:45.265Z,97749.59
2022-11-04T00:27:34.341Z,97756.81
2022-11-04T00:30:03.441Z,97753.88
2022-11-04T00:32:51.448Z,97754.91
2022-11-04T00:35:20.768Z,97755.44
2022-11-04T00:37:49.389Z,97749.53
2022-11-04T00:40:19.677Z,97747.91
2022-11-04T00:42:48.283Z,97746.84
2022-11-04T00:45:17.092Z,97759.13
2022-11-04T00:47:45.764Z,97753.75
2022-11-04T00:50:14.363Z,97756.69
2022-11-04T00:52:43.083Z,97749.97
2022-11-04T00:55:12.120Z,97744.63
2022-11-04T00:57:42.171Z,97743.31
2022-11-04T01:00:12.897Z,97749.47
2022-11-04T01:02:41.868Z,97747.28
2022-11-04T01:05:11.248Z,97739.81
2022-11-04T01:07:43.649Z,97737.09
2022-11-04T01:10:13.143Z,97737.41
2022-11-04T01:12:43.490Z,97726.72
2022-11-04T01:15:12.557Z,97724.84
2022-11-04T01:17:41.385Z,97729.13
2022-11-04T01:20:11.713Z,97726.16
2022-11-04T01:22:40.485Z,97721.56
2022-11-04T01:25:11.730Z,97718.34
2022-11-04T01:27:40.505Z,97721.06
2022-11-04T01:30:13.712Z,97714.38
2022-11-04T01:32:42.472Z,97711.94
2022-11-04T01:35:11.724Z,97710.91
2022-11-04T01:37:40.643Z,97716.00
2022-11-04T01:40:11.166Z,97703.94
2022-11-04T01:42:39.904Z,97707.16
2022-11-04T01:45:17.629Z,97709.88
2022-11-04T01:47:54.304Z,97703.97
2022-11-04T01:50:28.191Z,97697.56
2022-11-04T01:53:04.659Z,97700.78
2022-11-04T01:55:37.426Z,97699.19
2022-11-04T01:58:12.133Z,97704.31
2022-11-04T02:00:44.542Z,97697.06
2022-11-04T02:03:19.533Z,97696.81
2022-11-04T02:05:50.001Z,97704.31
2022-11-04T02:08:20.618Z,97703.53
2022-11-04T02:10:59.306Z,97709.69
2022-11-04T02:13:28.635Z,97706.78
2022-11-04T02:16:12.831Z,97723.09
2022-11-04T02:19:00.582Z,97744.78
2022-11-04T02:21:59.164Z,97740.50
2022-11-04T02:25:22.770Z,97740.53
2022-11-04T02:28:29.933Z,97724.47
2022-11-04T02:31:14.024Z,97719.41
2022-11-04T02:33:52.250Z,97719.91
2022-11-04T02:36:34.114Z,97712.72
2022-11-04T02:39:13.908Z,97713.03
2022-11-04T02:41:57.703Z,97704.19
2022-11-04T02:44:35.247Z,97709.22
2022-11-04T02:47:12.323Z,97739.44
2022-11-04T02:49:50.781Z,97809.91
2022-11-04T02:52:27.233Z,97819.63
2022-11-04T02:55:04.938Z,97811.66
2022-11-04T02:57:40.440Z,97821.59
2022-11-04T03:00:21.685Z,97821.13
2022-11-04T03:02:57.742Z,97823.78
2022-11-04T03:05:34.346Z,97822.97
2022-11-04T03:08:10.535Z,97847.34
2022-11-04T03:10:46.693Z,97807.03
2022-11-04T03:13:22.283Z,97828.44
2022-11-04T03:15:56.905Z,97842.13
2022-11-04T03:18:39.615Z,97840.81
2022-11-04T03:21:14.306Z,97832.56
2022-11-04T03:23:44.022Z,97826.44
2022-11-04T03:26:22.257Z,97830.47
2022-11-04T03:29:05.938Z,97831.28
2022-11-04T03:31:46.250Z,97836.09
2022-11-04T03:34:16.564Z,97825.41
2022-11-04T03:36:45.423Z,97820.03
2022-11-04T03:39:14.225Z,97820.59
2022-11-04T03:41:50.566Z,97823.28
2022-11-04T03:44:19.666Z,97826.22
2022-11-04T03:46:48.787Z,97828.63
2022-11-04T03:49:20.378Z,97820.34
2022-11-04T03:51:48.995Z,97817.66
2022-11-04T03:54:19.273Z,97822.22
2022-11-04T03:57:25.407Z,97813.38
2022-11-04T04:00:10.515Z,97819.00
2022-11-04T04:03:08.372Z,97819.00
2022-11-04T04:05:45.154Z,97829.72
2022-11-04T04:08:31.668Z,97825.41
2022-11-04T04:11:12.997Z,97823.53
2022-11-04T04:13:51.717Z,97829.09
2022-11-04T04:16:29.265Z,97827.53
2022-11-04T04:19:05.674Z,97832.88
2022-11-04T04:21:44.254Z,97830.75
2022-11-04T04:24:36.603Z,97835.28
2022-11-04T04:27:23.055Z,97830.75
2022-11-04T04:29:54.527Z,97830.50
2022-11-04T04:32:27.028Z,97841.22
2022-11-04T04:35:16.704Z,97839.34
2022-11-04T04:37:48.652Z,97835.59
2022-11-04T04:40:42.224Z,97844.97
2022-11-04T04:43:34.609Z,97844.69
2022-11-04T04:46:04.677Z,97851.66
2022-11-04T04:48:33.364Z,97853.25
2022-11-04T04:51:02.626Z,97855.66
2022-11-04T04:53:32.710Z,97856.47
2022-11-04T04:56:01.341Z,97844.97
2022-11-04T04:58:30.080Z,97859.16
2022-11-04T05:00:59.826Z,97866.13
2022-11-04T05:03:28.523Z,97854.06
2022-11-04T05:06:00.374Z,97873.06
2022-11-04T05:08:28.981Z,97864.50
2022-11-04T05:11:00.593Z,97869.63
2022-11-04T05:13:30.792Z,97873.88
2022-11-04T05:16:06.746Z,97877.88
2022-11-04T05:18:38.941Z,97873.09
2022-11-04T05:21:11.977Z,97876.56
2022-11-04T05:23:40.935Z,97865.59
2022-11-04T05:26:15.906Z,97843.91
2022-11-04T05:28:45.543Z,97840.41
2022-11-04T05:31:22.451Z,97830.53
2022-11-04T05:33:51.317Z,97842.06
2022-11-04T05:36:20.088Z,97844.75
2022-11-04T05:38:52.898Z,97855.97
2022-11-04T05:41:26.818Z,97854.88
2022-11-04T05:43:57.235Z,97858.13
2022-11-04T05:46:27.180Z,97857.06
2022-11-04T05:48:56.206Z,97851.97
2022-11-04T05:51:29.715Z,97861.38
2022-11-04T05:53:58.340Z,97860.56
2022-11-04T05:56:28.443Z,97857.88
2022-11-04T05:58:57.157Z,97849.59
2022-11-04T06:01:31.133Z,97852.25
2022-11-04T06:04:01.867Z,97834.31
2022-11-04T06:06:34.425Z,97850.66
2022-11-04T06:09:04.633Z,97860.81
2022-11-04T06:11:36.299Z,97867.53
2022-11-04T06:14:05.423Z,97874.72
2022-11-04T06:16:34.133Z,97873.13
2022-11-04T06:19:06.111Z,97869.41
2022-11-04T06:21:38.244Z,97872.06
2022-11-04T06:24:07.273Z,97867.00
2022-11-04T06:26:37.244Z,97862.44
2022-11-04T06:29:05.837Z,97860.31
2022-11-04T06:31:34.458Z,97867.28
2022-11-04T06:34:03.218Z,97868.09
2022-11-04T06:36:31.880Z,97872.09
2022-11-04T06:39:04.591Z,97868.38
2022-11-04T06:41:34.002Z,97868.91
2022-11-04T06:44:04.191Z,97869.44
2022-11-04T06:46:38.828Z,97866.75
2022-11-04T06:49:12.812Z,97867.84
2022-11-04T06:51:41.628Z,97864.66
2022-11-04T06:54:10.265Z,97864.13
2022-11-04T06:56:38.979Z,97865.44
2022-11-04T06:59:09.494Z,97869.50
2022-11-04T07:01:38.627Z,97874.31
2022-11-04T07:04:07.495Z,97868.44
2022-11-04T07:06:38.452Z,97856.66
2022-11-04T07:09:12.184Z,97853.19
2022-11-04T07:11:42.699Z,97855.31
2022-11-04T07:14:14.028Z,97855.88
2022-11-04T07:16:42.724Z,97851.88
2022-11-04T07:19:11.327Z,97857.22
2022-11-04T07:21:39.981Z,97849.72
2022-11-04T07:24:09.115Z,97852.94
2022-11-04T07:26:37.731Z,97861.53
2022-11-04T07:29:06.893Z,97854.56
2022-11-04T07:31:36.869Z,97853.22
2022-11-04T07:34:06.107Z,97867.16
2022-11-04T07:36:34.824Z,97862.63
2022-11-04T07:39:03.534Z,97858.31
2022-11-04T07:41:32.057Z,97866.91
2022-11-04T07:44:01.089Z,97871.72
2022-11-04T07:46:29.743Z,97880.59
2022-11-04T07:49:00.611Z,97886.19
2022-11-04T07:51:30.341Z,97873.88
2022-11-04T07:53:59.275Z,97882.19
2022-11-04T07:56:28.392Z,97888.34
2022-11-04T07:58:56.999Z,97888.59
2022-11-04T08:01:26.255Z,97891.56
2022-11-04T08:03:55.038Z,97898.53
2022-11-04T08:06:25.052Z,97895.31
2022-11-04T08:08:54.269Z,97874.41
2022-11-04T08:11:28.424Z,97867.47
2022-11-04T08:13:57.698Z,97870.41
2022-11-04T08:16:33.085Z,97875.50
2022-11-04T08:19:03.015Z,97884.06
2022-11-04T08:21:35.744Z,97885.69
2022-11-04T08:24:06.090Z,97880.31
2022-11-04T08:26:35.276Z,97883.00
2022-11-04T08:29:08.490Z,97887.84
2022-11-04T08:31:37.490Z,97879.25
2022-11-04T08:34:08.553Z,97877.13
2022-11-04T08:36:41.753Z,97879.81
2022-11-04T08:39:11.663Z,97872.81
2022-11-04T08:41:43.231Z,97864.25
2022-11-04T08:44:14.272Z,97865.34
2022-11-04T08:46:45.802Z,97868.56
2022-11-04T08:49:20.753Z,97869.34
2022-11-04T08:51:56.761Z,97869.63
2022-11-04T08:54:26.065Z,97868.28
2022-11-04T08:56:55.365Z,97856.47
2022-11-04T08:59:25.204Z,97865.34
2022-11-04T09:01:54.281Z,97859.16
2022-11-04T09:04:23.290Z,97861.03
2022-11-04T09:06:56.277Z,97862.91
2022-11-04T09:09:25.079Z,97862.91
2022-11-04T09:11:54.026Z,97861.03
2022-11-04T09:14:23.891Z,97865.88
2022-11-04T09:16:54.142Z,97873.94
2022-11-04T09:19:22.706Z,97867.47
2022-11-04T09:21:52.755Z,97868.56
2022-11-04T09:24:21.409Z,97870.97
2022-11-04T09:26:50.057Z,97859.97
2022-11-04T09:29:18.779Z,97858.91
2022-11-04T09:31:47.355Z,97856.22
2022-11-04T09:34:15.995Z,97867.47
2022-11-04T09:36:44.985Z,97869.06
2022-11-04T09:39:15.007Z,97873.91
2022-11-04T09:42:18.626Z,97871.50
2022-11-04T09:45:24.128Z,97873.91
2022-11-04T09:47:48.375Z,97884.63
2022-11-04T09:50:25.855Z,97898.03
2022-11-04T09:53:02.789Z,97901.25
2022-11-04T09:55:41.845Z,97911.72
2022-11-04T09:58:15.157Z,97920.28
2022-11-04T10:00:57.532Z,97925.09
2022-11-04T10:03:52.454Z,97935.28
2022-11-04T10:06:41.623Z,97943.56
2022-11-04T10:09:31.417Z,97938.19
2022-11-04T10:12:23.077Z,97954.28
2022-11-04T10:15:18.615Z,97953.47
2022-11-04T10:18:06.138Z,97955.03
2022-11-04T10:20:50.554Z,97959.06
2022-11-04T10:23:24.636Z,97957.47
2022-11-04T10:26:04.727Z,97956.13
2022-11-04T10:28:42.217Z,97958.81
2022-11-04T10:31:17.058Z,97961.25
2022-11-04T10:33:51.889Z,97963.91
2022-11-04T10:36:22.361Z,97971.97
2022-11-04T10:38:55.715Z,97963.91
2022-11-04T10:41:33.867Z,97958.84
2022-11-04T10:44:09.312Z,97960.72
2022-11-04T10:46:56.786Z,97961.78
2022-11-04T10:50:27.113Z,97963.13
2022-11-04T10:52:49.769Z,97963.66
2022-11-04T10:55:37.448Z,97971.44
2022-11-04T10:58:17.659Z,97967.66
2022-11-04T11:00:47.817Z,97968.19
2022-11-04T11:03:33.331Z,97970.63
2022-11-04T11:06:28.999Z,97966.59
2022-11-04T11:09:13.021Z,97960.94
2022-11-04T11:11:48.928Z,97968.69
2022-11-04T11:14:34.645Z,97964.66
2022-11-04T11:17:26.462Z,97960.59
2022-11-04T11:20:02.995Z,97958.50
2022-11-04T11:22:43.853Z,97970.81
2022-11-04T11:25:31.415Z,97969.44
2022-11-04T11:28:03.054Z,97961.97
2022-11-04T11:30:35.231Z,97962.47
2022-11-04T11:33:17.087Z,97953.09
2022-11-04T11:35:55.377Z,97955.22
2022-11-04T11:38:27.692Z,97961.13
2022-11-04T11:41:25.541Z,97960.88
2022-11-04T11:43:58.014Z,97950.44
2022-11-04T11:46:30.700Z,97947.75
2022-11-04T11:49:04.276Z,97954.41
2022-11-04T11:51:36.338Z,97950.41
2022-11-04T11:54:22.931Z,97956.06
2022-11-04T11:57:13.209Z,97950.69
2022-11-04T12:02:53.353Z,97956.06
2022-11-04T12:12:00.924Z,97950.91
2022-11-04T12:14:49.157Z,97938.31
2022-11-04T12:17:36.902Z,97951.97
2022-11-04T12:20:43.578Z,97941.56
2022-11-04T12:23:22.130Z,97937.31
2022-11-04T12:26:13.121Z,97946.16
2022-11-04T12:29:04.706Z,97945.56
2022-11-04T12:31:46.940Z,97940.22
2022-11-04T12:34:41.481Z,97944.28
2022-11-04T12:37:26.591Z,97945.09
2022-11-04T12:40:12.946Z,97939.19
2022-11-04T12:43:10.656Z,97936.78
2022-11-04T12:45:58.165Z,97936.50
2022-11-04T12:48:58.427Z,97933.25
2022-11-04T12:51:42.807Z,97931.38
2022-11-04T12:54:46.634Z,97934.34
2022-11-04T12:57:30.455Z,97928.16
2022-11-04T13:00:12.513Z,97923.88
2022-11-04T13:02:50.362Z,97919.34
2022-11-04T13:05:45.606Z,97919.84
2022-11-04T13:08:26.952Z,97920.91
2022-11-04T13:11:04.608Z,97920.91
2022-11-04T13:13:40.389Z,97923.06
2022-11-04T13:16:13.996Z,97928.94
2022-11-04T13:18:45.808Z,97930.03
2022-11-04T13:21:23.106Z,97926.28
2022-11-04T13:23:58.422Z,97924.38
2022-11-04T13:26:28.551Z,97928.69
2022-11-04T13:29:08.992Z,97940.72
2022-11-04T13:31:51.725Z,97941.28
2022-11-04T13:34:36.362Z,97945.53
2022-11-04T13:37:21.779Z,97946.63
2022-11-04T13:39:56.544Z,97941.47
2022-11-04T13:43:19.593Z,97948.47
2022-11-04T13:45:52.958Z,97957.31
2022-11-04T13:48:27.217Z,97963.44
2022-11-04T13:51:03.922Z,97957.28
2022-11-04T13:53:46.673Z,97959.16
2022-11-04T13:56:35.561Z,97964.53
2022-11-04T13:59:23.983Z,97967.22
2022-11-04T14:02:38.794Z,97975.50
2022-11-04T14:06:12.943Z,97962.63
2022-11-04T14:09:34.365Z,97960.47
2022-11-04T14:12:34.316Z,97963.59
2022-11-04T14:15:18.268Z,97972.19
2022-11-04T14:18:12.063Z,97981.28
2022-11-04T14:21:08.413Z,97979.41
2022-11-04T14:23:38.903Z,97990.91
2022-11-04T14:26:11.434Z,97987.38
2022-11-04T14:28:44.754Z,97990.59
2022-11-04T14:31:36.588Z,97989.84
2022-11-04T14:34:07.563Z,97999.69
2022-11-04T14:36:39.372Z,98006.41
2022-11-04T14:39:25.012Z,98006.66
2022-11-04T14:42:02.061Z,98016.78
2022-11-04T14:44:38.062Z,98023.75
2022-11-04T14:47:26.812Z,98026.44
2022-11-04T14:50:07.971Z,98034.50
2022-11-04T14:52:48.199Z,98036.63
2022-11-04T14:55:21.717Z,98035.25
2022-11-04T14:57:54.248Z,98032.53
2022-11-04T15:00:37.211Z,98034.97
2022-11-04T15:03:57.566Z,98032.53
2022-11-04T15:06:11.541Z,98035.78
2022-11-04T15:08:46.759Z,98039.50
2022-11-04T15:11:42.318Z,98041.63
2022-11-04T15:14:22.116Z,98046.50
2022-11-04T15:16:55.968Z,98047.56
2022-11-04T15:19:33.264Z,98046.50
2022-11-04T15:22:05.713Z,98049.72
2022-11-04T15:24:36.825Z,98048.66
2022-11-04T15:27:10.326Z,98054.53
2022-11-04T15:29:39.456Z,98051.31
2022-11-04T15:32:08.873Z,98052.94
2022-11-04T15:34:39.144Z,98049.19
2022-11-04T15:37:09.716Z,98052.94
2022-11-04T15:39:44.851Z,98052.69
2022-11-04T15:42:40.211Z,98054.03
2022-11-04T15:45:38.753Z,98058.59
2022-11-04T15:48:29.963Z,98055.66
2022-11-04T15:51:21.296Z,98063.41
2022-11-04T15:54:00.143Z,98063.63
2022-11-04T15:56:36.952Z,98066.03
2022-11-04T15:59:16.392Z,98073.00
2022-11-04T16:01:48.278Z,98075.16
2022-11-04T16:04:21.414Z,98072.72
2022-11-04T16:07:24.767Z,98077.50
2022-11-04T16:09:57.029Z,98083.41
2022-11-04T16:12:36.481Z,98087.41
2022-11-04T16:15:06.430Z,98088.19
2022-11-04T16:17:35.390Z,98087.09
2022-11-04T16:20:07.610Z,98089.19
2022-11-04T16:23:28.118Z,98091.81
2022-11-04T16:26:01.500Z,98091.81
2022-11-04T16:28:37.112Z,98094.50
2022-11-04T16:31:10.483Z,98107.72
2022-11-04T16:33:39.670Z,98105.66
2022-11-04T16:36:23.851Z,98111.06
2022-11-04T16:39:00.912Z,98111.09
2022-11-04T16:41:35.305Z,98105.25
2022-11-04T16:44:05.979Z,98113.28
2022-11-04T16:46:35.054Z,98122.94
2022-11-04T16:49:03.745Z,98124.56
2022-11-04T16:51:35.416Z,98140.84
2022-11-04T16:54:05.518Z,98133.16
2022-11-04T16:56:35.977Z,98143.28
2022-11-04T16:59:04.923Z,98138.50
2022-11-04T17:01:33.938Z,98140.66
2022-11-04T17:04:04.446Z,98147.09
2022-11-04T17:06:33.129Z,98144.66
2022-11-04T17:09:01.855Z,98145.59
2022-11-04T17:11:32.364Z,98141.03
2022-11-04T17:14:01.434Z,98141.59
2022-11-04T17:16:31.594Z,98145.34
2022-11-04T17:19:01.139Z,98146.41
2022-11-04T17:21:29.922Z,98148.56
2022-11-04T17:23:59.892Z,98148.06
2022-11-04T17:26:28.537Z,98145.97
2022-11-04T17:28:59.746Z,98158.78
2022-11-04T17:31:28.774Z,98160.41
2022-11-04T17:33:57.401Z,98156.66
2022-11-04T17:36:26.146Z,98149.22
2022-11-04T17:38:54.825Z,98158.28
2022-11-04T17:41:40.910Z,98161.69
2022-11-04T17:44:11.039Z,98166.25
2022-11-04T17:46:41.917Z,98165.13
2022-11-04T17:49:15.249Z,98168.66
2022-11-04T17:51:48.127Z,98168.44
2022-11-04T17:54:18.807Z,98163.09
2022-11-04T17:56:49.029Z,98171.13
2022-11-04T17:59:19.821Z,98167.06
2022-11-04T18:01:50.493Z,98167.84
2022-11-04T18:04:22.400Z,98172.41
2022-11-04T18:06:52.235Z,98165.69
2022-11-04T18:09:21.367Z,98162.44
2022-11-04T18:12:07.342Z,98160.31
2022-11-04T18:14:37.658Z,98168.94
2022-11-04T18:17:07.440Z,98167.84
2022-11-04T18:19:37.428Z,98167.84
2022-11-04T18:22:06.641Z,98168.94
2022-11-04T18:24:36.077Z,98175.63
2022-11-04T18:27:06.339Z,98175.31
2022-11-04T18:29:41.972Z,98179.63
2022-11-04T18:33:07.341Z,98177.97
2022-11-04T18:35:36.814Z,98170.47
2022-11-04T18:38:08.860Z,98168.88
2022-11-04T18:40:38.971Z,98169.63
2022-11-04T18:43:09.246Z,98166.13
2022-11-04T18:45:39.652Z,98165.06
2022-11-04T18:48:08.746Z,98163.47
2022-11-04T18:50:37.845Z,98157.56
2022-11-04T18:53:07.070Z,98160.22
2022-11-04T18:55:36.678Z,98157.03
2022-11-04T18:58:05.670Z,98159.47
2022-11-04T19:00:37.537Z,98162.94
2022-11-04T19:03:08.296Z,98161.09
2022-11-04T19:05:42.321Z,98163.47
2022-11-04T19:08:11.849Z,98165.25
2022-11-04T19:10:57.917Z,98163.41
2022-11-04T19:13:29.926Z,98169.81
2022-11-04T19:16:07.296Z,98168.47
2022-11-04T19:18:37.827Z,98166.81
2022-11-04T19:21:09.784Z,98171.94
2022-11-04T19:23:39.446Z,98177.84
2022-11-04T19:26:13.546Z,98179.16
2022-11-04T19:28:48.580Z,98180.44
2022-11-04T19:31:20.840Z,98174.63
2022-11-04T19:33:52.901Z,98185.06
2022-11-04T19:36:24.415Z,98184.25
2022-11-04T19:38:55.298Z,98190.16
2022-11-04T19:41:42.821Z,98195.50
2022-11-04T19:44:14.577Z,98197.88
2022-11-04T19:47:35.311Z,98202.66
2022-11-04T19:52:47.186Z,98203.47
2022-11-04T19:58:25.055Z,98214.75
2022-11-04T20:00:56.984Z,98221.13
2022-11-04T20:03:25.763Z,98221.38
2022-11-04T20:05:54.739Z,98228.59
2022-11-04T20:08:26.741Z,98227.31
2022-11-04T20:10:55.414Z,98229.13
2022-11-04T20:13:42.494Z,98227.47
2022-11-04T20:16:18.250Z,98230.72
2022-11-04T20:18:51.027Z,98238.19
2022-11-04T20:21:25.978Z,98239.16
2022-11-04T20:23:59.368Z,98246.47
2022-11-04T20:26:30.084Z,98252.63
2022-11-04T20:29:00.395Z,98252.63
2022-11-04T20:31:33.703Z,98255.28
2022-11-04T20:34:07.995Z,98256.34
2022-11-04T20:36:38.863Z,98262.25
2022-11-04T20:39:13.567Z,98264.38
2022-11-04T20:41:42.489Z,98271.84
2022-11-04T20:44:12.492Z,98267.84
2022-11-04T20:46:42.559Z,98267.56
2022-11-04T20:49:12.116Z,98268.03
2022-11-04T20:51:50.250Z,98276.94
2022-11-04T20:54:27.357Z,98275.63
2022-11-04T20:56:56.381Z,98283.66
2022-11-04T20:59:25.163Z,98278.63
2022-11-04T21:01:56.063Z,98297.34
2022-11-04T21:04:24.902Z,98289.00
2022-11-04T21:06:54.186Z,98288.53
2022-11-04T21:09:23.272Z,98294.34
2022-11-04T21:11:53.350Z,98294.94
2022-11-04T21:14:22.171Z,98300.84
2022-11-04T21:16:50.836Z,98300.28
2022-11-04T21:19:21.974Z,98302.38
2022-11-04T21:21:50.833Z,98304.03
2022-11-04T21:24:19.539Z,98306.91
2022-11-04T21:26:49.114Z,98302.38
2022-11-04T21:29:21.262Z,98313.66
2022-11-04T21:31:50.358Z,98314.72
2022-11-04T21:34:19.154Z,98320.06
2022-11-04T21:36:51.656Z,98317.94
2022-11-04T21:39:20.513Z,98314.47
2022-11-04T21:41:49.198Z,98316.34
2022-11-04T21:44:19.316Z,98323.84
2022-11-04T21:46:51.288Z,98315.81
2022-11-04T21:49:21.487Z,98313.72
2022-11-04T21:51:50.164Z,98318.28
2022-11-04T21:54:19.113Z,98314.53
2022-11-04T21:56:47.735Z,98326.53
2022-11-04T21:59:18.473Z,98324.44
2022-11-04T22:01:49.102Z,98322.25
2022-11-04T22:04:17.813Z,98326.22
2022-11-04T22:06:47.205Z,98324.91
2022-11-04T22:09:15.894Z,98321.97
2022-11-04T22:11:44.549Z,98329.72
2022-11-04T22:14:13.985Z,98328.31
2022-11-04T22:16:42.616Z,98335.31
2022-11-04T22:19:15.123Z,98337.09
2022-11-04T22:21:46.849Z,98335.78
2022-11-04T22:24:18.508Z,98341.66
2022-11-04T22:26:47.862Z,98342.28
2022-11-04T22:29:16.848Z,98337.94
2022-11-04T22:31:46.682Z,98343.91
2022-11-04T22:34:16.813Z,98342.78
2022-11-04T22:36:45.433Z,98343.84
2022-11-04T22:39:16.898Z,98346.84
2022-11-04T22:41:47.228Z,98351.28
2022-11-04T22:44:16.249Z,98357.19
2022-11-04T22:46:45.050Z,98346.84
2022-11-04T22:49:14.605Z,98349.25
2022-11-04T22:51:44.749Z,98350.06
2022-11-04T22:54:14.600Z,98348.47
2022-11-04T22:56:43.298Z,98357.63
2022-11-04T22:59:12.161Z,98359.63
2022-11-04T23:01:41.049Z,98346.50
2022-11-04T23:04:12.235Z,98348.13
2022-11-04T23:06:41.112Z,98349.19
2022-11-04T23:09:13.936Z,98347.00
2022-11-04T23:12:00.369Z,98351.22
2022-11-04T23:14:46.171Z,98357.06
2022-11-04T23:17:37.072Z,98357.06
2022-11-04T23:20:10.223Z,98364.50
2022-11-04T23:22:57.135Z,98359.16
2022-11-04T23:25:28.197Z,98363.69
2022-11-04T23:28:14.945Z,98362.41
2022-11-04T23:30:46.960Z,98361.53
2022-11-04T23:33:16.482Z,98365.31
2022-11-04T23:36:04.932Z,98370.75
2022-11-04T23:38:35.459Z,98368.72
2022-11-04T23:41:25.493Z,98373.09
2022-11-04T23:43:54.652Z,98371.00
2022-11-04T23:46:49.233Z,98378.28
2022-11-04T23:49:35.037Z,98371.16
2022-11-04T23:52:22.411Z,98374.47
2022-11-04T23:55:08.586Z,98371.22
2022-11-04T23:57:55.973Z,98382.50
